createdAt,value
2023-11-30T00:01:50.791Z,20.33
2023-11-30T00:04:19.170Z,23.10
2023-11-30T00:06:47.568Z,20.57
2023-11-30T00:09:15.934Z,22.57
2023-11-30T00:11:45.784Z,21.23
2023-11-30T00:14:14.497Z,23.23
2023-11-30T00:16:42.847Z,22.83
2023-11-30T00:19:11.137Z,25.73
2023-11-30T00:21:40.034Z,25.53
2023-11-30T00:24:08.487Z,24.93
2023-11-30T00:26:36.806Z,23.67
2023-11-30T00:29:06.632Z,21.87
2023-11-30T00:31:35.346Z,22.37
2023-11-30T00:34:03.710Z,19.63
2023-11-30T00:36:32.867Z,20.53
2023-11-30T00:39:01.279Z,20.40
2023-11-30T00:41:29.707Z,21.40
2023-11-30T00:43:57.968Z,19.67
2023-11-30T00:46:27.704Z,23.33
2023-11-30T00:48:56.045Z,19.70
2023-11-30T00:51:24.437Z,21.57
2023-11-30T00:53:52.836Z,21.93
2023-11-30T00:56:21.137Z,21.60
2023-11-30T00:58:49.482Z,18.43
2023-11-30T01:01:17.989Z,18.40
2023-11-30T01:03:48.757Z,23.60
2023-11-30T01:06:17.845Z,21.87
2023-11-30T01:08:46.157Z,19.43
2023-11-30T01:11:14.811Z,19.53
2023-11-30T01:13:43.183Z,20.60
2023-11-30T01:16:12.195Z,18.77
2023-11-30T01:18:41.722Z,20.23
2023-11-30T01:21:11.584Z,21.53
2023-11-30T01:23:40.058Z,20.13
2023-11-30T01:26:08.616Z,23.30
2023-11-30T01:28:37.464Z,20.57
2023-11-30T01:31:06.088Z,19.60
2023-11-30T01:33:34.636Z,20.70
2023-11-30T01:36:03.069Z,20.77
2023-11-30T01:38:32.897Z,24.97
2023-11-30T01:41:01.177Z,20.30
2023-11-30T01:43:29.535Z,20.40
2023-11-30T01:46:03.431Z,22.00
2023-11-30T01:48:34.137Z,21.93
2023-11-30T01:51:05.859Z,20.90
2023-11-30T01:53:36.699Z,19.23
2023-11-30T01:56:05.920Z,20.07
2023-11-30T01:58:34.495Z,21.50
2023-11-30T02:01:02.168Z,23.33
2023-11-30T02:03:31.842Z,21.60
2023-11-30T02:06:01.304Z,22.83
2023-11-30T02:08:30.211Z,22.20
2023-11-30T02:11:00.258Z,21.13
2023-11-30T02:13:28.623Z,23.67
2023-11-30T02:15:56.971Z,23.03
2023-11-30T02:18:25.878Z,22.17
2023-11-30T02:20:58.209Z,22.10
2023-11-30T02:23:28.571Z,22.70
2023-11-30T02:25:56.960Z,21.37
2023-11-30T02:28:25.780Z,23.73
2023-11-30T02:30:54.198Z,20.97
2023-11-30T02:33:22.678Z,21.53
2023-11-30T02:35:51.203Z,20.90
2023-11-30T02:38:19.586Z,19.27
2023-11-30T02:40:49.398Z,20.17
2023-11-30T02:43:17.843Z,21.80
2023-11-30T02:45:46.331Z,19.57
2023-11-30T02:48:16.179Z,20.90
2023-11-30T02:50:44.640Z,23.20
2023-11-30T02:53:13.558Z,19.80
2023-11-30T02:55:42.267Z,20.83
2023-11-30T02:58:12.204Z,19.23
2023-11-30T03:00:40.596Z,18.37
2023-11-30T03:03:09.003Z,19.07
2023-11-30T03:05:37.391Z,17.13
2023-11-30T03:08:06.176Z,18.93
2023-11-30T03:10:34.477Z,17.77
2023-11-30T03:13:02.944Z,17.83
2023-11-30T03:15:33.057Z,16.37
2023-11-30T03:18:01.450Z,17.07
2023-11-30T03:20:29.979Z,18.80
2023-11-30T03:22:58.412Z,16.57
2023-11-30T03:25:26.772Z,16.37
2023-11-30T03:27:55.259Z,15.30
2023-11-30T03:30:23.646Z,16.00
2023-11-30T03:32:53.663Z,16.00
2023-11-30T03:35:22.108Z,15.63
2023-11-30T03:37:50.731Z,16.17
2023-11-30T03:40:19.098Z,16.87
2023-11-30T03:42:47.547Z,17.23
2023-11-30T03:45:16.445Z,14.87
2023-11-30T03:47:44.844Z,16.17
2023-11-30T03:50:14.628Z,16.70
2023-11-30T03:52:43.071Z,14.77
2023-11-30T03:55:11.520Z,16.10
2023-11-30T03:57:39.916Z,15.97
2023-11-30T04:00:14.416Z,14.33
2023-11-30T04:02:43.597Z,14.70
2023-11-30T04:05:15.362Z,13.63
2023-11-30T04:07:44.607Z,14.23
2023-11-30T04:10:13.649Z,14.10
2023-11-30T04:12:42.525Z,14.13
2023-11-30T04:15:11.524Z,14.77
2023-11-30T04:17:40.498Z,13.83
2023-11-30T04:20:11.193Z,13.03
2023-11-30T04:22:41.077Z,12.93
2023-11-30T04:25:10.678Z,13.77
2023-11-30T04:27:39.478Z,12.20
2023-11-30T04:30:09.100Z,15.97
2023-11-30T04:32:37.711Z,13.53
2023-11-30T04:35:07.037Z,13.57
2023-11-30T04:37:35.564Z,15.13
2023-11-30T04:40:06.082Z,14.97
2023-11-30T04:42:34.566Z,15.00
2023-11-30T04:45:03.200Z,14.63
2023-11-30T04:47:31.637Z,14.30
2023-11-30T04:50:00.286Z,12.90
2023-11-30T04:52:28.730Z,13.27
2023-11-30T04:54:57.086Z,15.73
2023-11-30T04:57:27.153Z,13.70
2023-11-30T04:59:57.442Z,14.47
2023-11-30T05:02:25.999Z,12.83
2023-11-30T05:04:54.503Z,11.43
2023-11-30T05:07:22.842Z,13.90
2023-11-30T05:09:51.235Z,12.27
2023-11-30T05:12:19.633Z,15.07
2023-11-30T05:14:49.800Z,13.13
2023-11-30T05:17:19.429Z,13.07
2023-11-30T05:19:47.794Z,15.07
2023-11-30T05:22:16.295Z,12.93
2023-11-30T05:24:44.794Z,12.07
2023-11-30T05:27:13.130Z,12.83
2023-11-30T05:29:41.428Z,11.90
2023-11-30T05:32:11.314Z,11.87
2023-11-30T05:34:39.669Z,12.30
2023-11-30T05:37:08.134Z,12.80
2023-11-30T05:39:37.757Z,13.03
2023-11-30T05:42:06.423Z,14.50
2023-11-30T05:44:34.747Z,15.53
2023-11-30T05:47:03.027Z,13.43
2023-11-30T05:49:32.749Z,14.30
2023-11-30T05:52:01.083Z,13.67
2023-11-30T05:54:29.469Z,13.10
2023-11-30T05:57:00.542Z,15.07
2023-11-30T05:59:29.709Z,14.23
2023-11-30T06:01:58.604Z,17.37
2023-11-30T06:04:30.444Z,16.77
2023-11-30T06:07:00.422Z,15.30
2023-11-30T06:09:28.875Z,14.23
2023-11-30T06:11:57.248Z,12.43
2023-11-30T06:14:25.539Z,17.73
2023-11-30T06:16:53.799Z,13.10
2023-11-30T06:19:22.016Z,12.57
2023-11-30T06:21:50.315Z,12.27
2023-11-30T06:24:20.044Z,15.87
2023-11-30T06:26:48.504Z,12.27
2023-11-30T06:29:17.058Z,13.93
2023-11-30T06:31:45.306Z,12.83
2023-11-30T06:34:13.721Z,15.60
2023-11-30T06:36:42.054Z,13.67
2023-11-30T06:39:10.724Z,14.57
2023-11-30T06:41:40.594Z,14.20
2023-11-30T06:44:09.113Z,12.03
2023-11-30T06:51:15.937Z,14.10
2023-11-30T06:53:48.836Z,12.10
2023-11-30T06:56:20.406Z,11.83
2023-11-30T06:58:57.180Z,11.43
2023-11-30T07:01:31.277Z,11.43
2023-11-30T07:04:10.160Z,13.13
2023-11-30T07:06:59.121Z,12.03
2023-11-30T07:09:31.961Z,15.47
2023-11-30T07:12:04.873Z,12.80
2023-11-30T07:14:55.464Z,12.40
2023-11-30T07:17:38.780Z,12.30
2023-11-30T07:20:12.187Z,12.10
2023-11-30T07:22:50.950Z,10.50
2023-11-30T07:25:29.471Z,11.40
2023-11-30T07:28:03.919Z,10.70
2023-11-30T07:33:24.530Z,11.60
2023-11-30T07:35:59.208Z,10.70
2023-11-30T07:38:33.434Z,10.43
2023-11-30T07:41:09.754Z,12.13
2023-11-30T07:43:40.618Z,11.57
2023-11-30T07:46:14.278Z,11.03
2023-11-30T07:48:43.184Z,11.97
2023-11-30T07:51:11.751Z,10.40
2023-11-30T07:53:40.307Z,10.80
2023-11-30T07:56:10.124Z,9.60
2023-11-30T07:58:38.749Z,11.73
2023-11-30T08:01:07.761Z,11.87
2023-11-30T08:03:58.937Z,11.33
2023-11-30T08:06:28.076Z,11.90
2023-11-30T08:08:56.601Z,9.70
2023-11-30T08:11:25.317Z,10.67
2023-11-30T08:13:54.251Z,10.67
2023-11-30T08:16:22.950Z,10.90
2023-11-30T08:18:51.579Z,10.80
2023-11-30T08:21:23.167Z,11.83
2023-11-30T08:23:52.029Z,10.43
2023-11-30T08:26:21.290Z,10.57
2023-11-30T08:28:51.948Z,12.70
2023-11-30T08:31:23.195Z,13.60
2023-11-30T08:33:52.114Z,10.83
2023-11-30T08:36:26.639Z,10.70
2023-11-30T08:38:55.693Z,9.00
2023-11-30T08:41:24.600Z,12.03
2023-11-30T08:43:54.105Z,10.13
2023-11-30T08:46:23.240Z,11.70
2023-11-30T08:48:52.296Z,9.73
2023-11-30T08:51:22.398Z,12.83
2023-11-30T08:53:51.283Z,14.23
2023-11-30T08:56:21.233Z,12.83
2023-11-30T08:58:55.713Z,11.73
2023-11-30T09:01:24.301Z,11.23
2023-11-30T09:04:09.833Z,14.73
2023-11-30T09:06:40.098Z,11.10
2023-11-30T09:09:08.801Z,10.47
2023-11-30T09:11:37.869Z,12.17
2023-11-30T09:14:06.696Z,10.60
2023-11-30T09:16:35.308Z,10.33
2023-11-30T09:19:06.529Z,14.03
2023-11-30T09:21:35.198Z,11.50
2023-11-30T09:24:05.770Z,10.47
2023-11-30T09:26:34.359Z,10.43
2023-11-30T09:29:04.267Z,10.00
2023-11-30T09:31:32.922Z,13.50
2023-11-30T09:34:02.916Z,10.60
2023-11-30T09:36:32.823Z,10.50
2023-11-30T09:39:01.526Z,11.00
2023-11-30T09:41:31.709Z,10.17
2023-11-30T09:44:02.007Z,10.50
2023-11-30T09:46:30.762Z,10.23
2023-11-30T09:48:59.574Z,11.30
2023-11-30T09:51:29.939Z,9.20
2023-11-30T09:53:59.349Z,10.60
2023-11-30T09:56:28.620Z,10.33
2023-11-30T09:58:58.587Z,11.20
2023-11-30T10:01:27.178Z,10.63
2023-11-30T10:03:55.900Z,10.93
2023-11-30T10:06:25.099Z,10.73
2023-11-30T10:08:53.639Z,12.70
2023-11-30T10:11:22.525Z,10.50
2023-11-30T10:13:51.589Z,9.97
2023-11-30T10:16:21.642Z,12.43
2023-11-30T10:18:50.343Z,12.00
2023-11-30T10:21:19.062Z,11.33
2023-11-30T10:23:47.777Z,10.90
2023-11-30T10:26:19.065Z,12.83
2023-11-30T10:28:47.888Z,28.93
2023-11-30T10:31:19.601Z,12.10
2023-11-30T10:33:55.648Z,15.83
2023-11-30T10:36:27.819Z,14.13
2023-11-30T10:39:05.186Z,13.77
2023-11-30T10:41:45.112Z,13.03
2023-11-30T10:44:21.543Z,15.93
2023-11-30T10:46:51.067Z,14.20
2023-11-30T10:49:22.346Z,16.20
2023-11-30T10:51:51.537Z,13.57
2023-11-30T10:54:29.529Z,13.30
2023-11-30T10:56:58.532Z,12.53
2023-11-30T10:59:30.790Z,14.23
2023-11-30T11:01:59.925Z,17.50
2023-11-30T11:04:38.754Z,14.87
2023-11-30T11:07:13.862Z,13.07
2023-11-30T11:09:43.845Z,14.53
2023-11-30T11:12:25.724Z,13.00
2023-11-30T11:15:12.805Z,13.50
2023-11-30T11:17:49.054Z,13.13
2023-11-30T11:20:25.944Z,11.63
2023-11-30T11:22:56.881Z,13.23
2023-11-30T11:25:28.007Z,15.40
2023-11-30T11:28:12.547Z,12.80
2023-11-30T11:30:44.669Z,14.60
2023-11-30T11:33:13.271Z,13.70
2023-11-30T11:35:43.055Z,14.07
2023-11-30T11:38:13.571Z,12.13
2023-11-30T11:40:47.291Z,17.83
2023-11-30T11:43:15.956Z,13.97
2023-11-30T11:45:50.092Z,14.07
2023-11-30T11:48:19.965Z,17.07
2023-11-30T11:50:59.559Z,20.83
2023-11-30T11:53:29.885Z,23.73
2023-11-30T11:56:04.173Z,16.20
2023-11-30T11:58:33.895Z,14.63
2023-11-30T12:01:02.508Z,13.00
2023-11-30T12:03:32.953Z,11.97
2023-11-30T12:06:02.936Z,14.93
2023-11-30T12:08:34.698Z,15.20
2023-11-30T12:11:03.420Z,17.20
2023-11-30T12:13:34.729Z,17.80
2023-11-30T12:16:05.819Z,18.73
2023-11-30T12:18:34.413Z,17.53
2023-11-30T12:21:04.167Z,16.70
2023-11-30T12:23:32.607Z,18.90
2023-11-30T12:26:01.017Z,14.73
2023-11-30T12:28:29.789Z,15.43
2023-11-30T12:30:58.188Z,16.30
2023-11-30T12:33:26.666Z,14.90
2023-11-30T12:35:55.699Z,16.70
2023-11-30T12:38:27.143Z,15.57
2023-11-30T12:40:55.644Z,16.67
2023-11-30T12:43:24.020Z,16.50
2023-11-30T12:45:53.020Z,14.43
2023-11-30T12:48:21.524Z,13.50
2023-11-30T12:50:49.988Z,14.07
2023-11-30T12:53:18.755Z,13.13
2023-11-30T12:55:48.830Z,14.57
2023-11-30T12:58:17.317Z,16.23
2023-11-30T13:00:45.914Z,14.93
2023-11-30T13:03:14.612Z,14.20
2023-11-30T13:05:43.069Z,12.40
2023-11-30T13:08:12.011Z,14.00
2023-11-30T13:10:40.402Z,12.73
2023-11-30T13:13:10.104Z,13.47
2023-11-30T13:15:39.780Z,14.27
2023-11-30T13:18:08.237Z,12.90
2023-11-30T13:20:36.659Z,12.13
2023-11-30T13:23:04.968Z,12.10
2023-11-30T13:25:33.294Z,11.97
2023-11-30T13:28:01.720Z,12.83
2023-11-30T13:30:31.524Z,14.40
2023-11-30T13:33:00.151Z,13.63
2023-11-30T13:35:28.595Z,13.67
2023-11-30T13:37:59.186Z,14.47
2023-11-30T13:40:27.578Z,14.17
2023-11-30T13:42:58.294Z,13.37
2023-11-30T13:45:27.918Z,13.70
2023-11-30T13:47:58.194Z,15.73
2023-11-30T13:50:34.997Z,14.47
2023-11-30T13:53:05.934Z,13.97
2023-11-30T13:55:34.412Z,15.03
2023-11-30T13:58:02.811Z,13.13
2023-11-30T14:00:31.586Z,13.40
2023-11-30T14:03:02.432Z,13.30
2023-11-30T14:05:31.142Z,14.83
2023-11-30T14:07:59.856Z,12.63
2023-11-30T14:10:28.905Z,12.90
2023-11-30T19:04:24.022Z,25.90
2023-11-30T19:06:52.784Z,24.40
2023-11-30T19:09:21.320Z,24.50
2023-11-30T19:11:50.378Z,26.47
2023-11-30T19:14:18.717Z,24.83
2023-11-30T19:16:49.747Z,22.60
2023-11-30T19:19:19.859Z,23.27
2023-11-30T19:21:48.444Z,24.43
2023-11-30T19:24:17.265Z,24.23
2023-11-30T19:26:45.714Z,24.43
2023-11-30T19:29:15.222Z,27.60
2023-11-30T19:31:43.731Z,29.27
2023-11-30T19:34:13.144Z,25.30
2023-11-30T19:36:43.412Z,32.83
2023-11-30T19:39:11.920Z,36.87
2023-11-30T19:41:43.723Z,26.87
2023-11-30T19:44:12.649Z,25.90
2023-11-30T19:46:41.219Z,28.07
2023-11-30T19:49:09.838Z,27.43
2023-11-30T19:51:38.573Z,31.97
2023-11-30T19:54:09.683Z,33.70
2023-11-30T19:56:41.126Z,34.90
2023-11-30T19:59:09.612Z,35.80
2023-11-30T20:01:38.158Z,30.90
2023-11-30T20:04:07.014Z,28.27
2023-11-30T20:06:35.730Z,29.60
2023-11-30T20:09:05.028Z,25.97
2023-11-30T20:11:34.847Z,26.17
2023-11-30T20:14:03.311Z,22.67
2023-11-30T20:16:31.877Z,22.80
2023-11-30T20:19:00.411Z,42.83
2023-11-30T20:21:28.911Z,39.13
2023-11-30T20:23:57.457Z,34.33
2023-11-30T20:26:25.893Z,29.50
2023-11-30T20:28:55.848Z,36.00
2023-11-30T20:31:24.429Z,35.20
2023-11-30T20:33:53.004Z,36.17
2023-11-30T20:36:21.562Z,32.60
2023-11-30T20:38:50.122Z,29.33
2023-11-30T20:41:18.621Z,30.90
2023-11-30T20:43:48.860Z,30.10
2023-11-30T20:46:20.942Z,29.33
2023-11-30T20:48:50.164Z,29.93
2023-11-30T20:51:20.235Z,26.40
2023-11-30T20:53:48.718Z,27.63
2023-11-30T20:56:17.146Z,38.10
2023-11-30T20:58:47.900Z,43.60
2023-11-30T21:01:16.625Z,34.57
2023-11-30T21:03:46.702Z,30.13
2023-11-30T21:06:15.460Z,30.40
2023-11-30T21:08:44.106Z,30.43
2023-11-30T21:11:14.452Z,30.97
2023-11-30T21:13:42.906Z,24.80
2023-11-30T21:16:11.660Z,21.83
2023-11-30T21:18:40.799Z,25.37
2023-11-30T21:21:11.161Z,26.13
2023-11-30T21:23:39.616Z,27.63
2023-11-30T21:26:08.527Z,26.60
2023-11-30T21:28:37.608Z,29.73
2023-11-30T21:31:06.540Z,28.20
2023-11-30T21:33:35.274Z,31.63
2023-11-30T21:36:03.843Z,29.40
2023-11-30T21:38:38.267Z,26.93
2023-11-30T21:41:06.999Z,23.63
2023-11-30T21:43:50.252Z,23.90
2023-11-30T21:46:19.381Z,27.17
2023-11-30T21:48:47.942Z,26.97
2023-11-30T21:51:16.490Z,25.87
2023-11-30T21:53:46.321Z,24.40
2023-11-30T21:56:15.363Z,28.37
2023-11-30T21:58:43.827Z,26.03
2023-11-30T22:01:12.323Z,28.07
2023-11-30T22:03:41.000Z,24.30
2023-11-30T22:06:10.478Z,27.23
2023-11-30T22:08:38.898Z,26.10
2023-11-30T22:11:09.120Z,25.77
2023-11-30T22:13:37.587Z,30.17
2023-11-30T22:16:18.698Z,32.97
2023-11-30T22:18:52.853Z,25.57
2023-11-30T22:21:21.241Z,24.97
2023-11-30T22:23:50.116Z,22.70
2023-11-30T22:26:19.936Z,22.27
2023-11-30T22:28:48.563Z,22.23
2023-11-30T22:31:18.142Z,25.67
2023-11-30T22:33:46.610Z,22.53
2023-11-30T22:36:15.199Z,28.97
2023-11-30T22:38:46.269Z,32.90
2023-11-30T22:41:15.229Z,27.47
2023-11-30T22:43:44.931Z,28.17
2023-11-30T22:46:20.461Z,27.07
2023-11-30T22:48:51.103Z,28.30
2023-11-30T22:51:19.722Z,24.13
2023-11-30T22:53:48.019Z,23.03
2023-11-30T22:56:22.014Z,24.67
2023-11-30T22:58:51.990Z,27.00
2023-11-30T23:01:20.574Z,27.70
2023-11-30T23:03:49.388Z,25.30
2023-11-30T23:06:18.131Z,20.77
2023-11-30T23:08:47.974Z,22.80
2023-11-30T23:11:16.560Z,24.70
2023-11-30T23:13:44.882Z,24.73
2023-11-30T23:16:15.120Z,20.47
2023-11-30T23:18:43.807Z,19.60
2023-11-30T23:21:12.086Z,19.37
2023-11-30T23:23:40.318Z,19.50
2023-11-30T23:26:08.745Z,21.37
2023-11-30T23:28:37.225Z,21.93
2023-11-30T23:31:05.810Z,19.37
2023-11-30T23:33:35.663Z,19.70
2023-11-30T23:36:05.420Z,22.90
2023-11-30T23:38:33.741Z,20.57
2023-11-30T23:41:02.081Z,20.50
2023-11-30T23:43:30.423Z,18.33
2023-11-30T23:45:58.764Z,18.90
2023-11-30T23:48:27.066Z,20.07
2023-11-30T23:50:57.130Z,23.73
2023-11-30T23:53:26.265Z,19.37
2023-11-30T23:55:54.743Z,22.40
2023-11-30T23:58:23.131Z,20.63
